createdAt,value
2019-05-01T00:01:27.174Z,94.09
2019-05-01T00:04:10.851Z,94.09
2019-05-01T00:06:41.038Z,93.95
2019-05-01T00:09:12.145Z,93.96
2019-05-01T00:11:41.180Z,94.21
2019-05-01T00:14:11.711Z,94.24
2019-05-01T00:16:41.551Z,94.44
2019-05-01T00:19:10.159Z,94.30
2019-05-01T00:21:38.903Z,94.55
2019-05-01T00:24:07.558Z,94.14
2019-05-01T00:26:36.109Z,94.35
2019-05-01T00:29:04.712Z,94.55
2019-05-01T00:31:33.314Z,93.95
2019-05-01T00:34:01.982Z,93.73
2019-05-01T00:36:30.475Z,93.78
2019-05-01T00:38:59.004Z,93.58
2019-05-01T00:41:27.605Z,93.53
2019-05-01T00:43:56.848Z,93.96
2019-05-01T00:46:25.321Z,93.96
2019-05-01T00:48:54.005Z,94.39
2019-05-01T00:51:22.489Z,94.17
2019-05-01T00:53:51.097Z,94.02
2019-05-01T00:56:21.438Z,93.98
2019-05-01T00:58:51.691Z,94.13
2019-05-01T01:01:37.909Z,94.26
2019-05-01T01:04:07.416Z,93.75
2019-05-01T01:06:36.028Z,94.06
2019-05-01T01:09:07.784Z,93.74
2019-05-01T01:11:36.716Z,93.67
2019-05-01T01:14:06.112Z,93.42
2019-05-01T01:16:34.655Z,93.61
2019-05-01T01:19:03.329Z,93.47
2019-05-01T01:21:33.622Z,93.33
2019-05-01T01:24:02.760Z,92.96
2019-05-01T01:26:31.701Z,93.01
2019-05-01T01:29:00.495Z,93.11
2019-05-01T01:31:29.138Z,93.11
2019-05-01T01:33:57.672Z,93.31
2019-05-01T01:36:26.172Z,93.55
2019-05-01T01:38:54.888Z,93.15
2019-05-01T01:41:24.116Z,93.11
2019-05-01T01:43:57.460Z,93.27
2019-05-01T01:46:33.522Z,93.37
2019-05-01T01:49:02.547Z,92.94
2019-05-01T01:51:31.194Z,92.71
2019-05-01T01:54:00.791Z,92.26
2019-05-01T01:56:29.424Z,91.97
2019-05-01T01:58:58.696Z,92.14
2019-05-01T02:01:31.645Z,91.96
2019-05-01T02:04:20.080Z,91.50
2019-05-01T02:06:50.264Z,91.47
2019-05-01T02:09:18.970Z,90.72
2019-05-01T02:11:48.844Z,90.66
2019-05-01T02:14:17.475Z,91.00
2019-05-01T02:16:46.153Z,90.78
2019-05-01T02:19:14.792Z,90.46
2019-05-01T02:21:43.445Z,89.98
2019-05-01T02:24:12.051Z,90.32
2019-05-01T02:26:45.013Z,90.34
2019-05-01T02:29:33.861Z,90.12
2019-05-01T02:32:03.602Z,89.78
2019-05-01T02:34:33.895Z,89.82
2019-05-01T02:37:04.312Z,90.33
2019-05-01T02:39:34.791Z,90.19
2019-05-01T02:42:04.110Z,89.76
2019-05-01T02:44:38.358Z,89.80
2019-05-01T02:47:09.896Z,89.08
2019-05-01T02:49:47.296Z,89.73
2019-05-01T02:52:17.460Z,89.01
2019-05-01T02:54:48.637Z,89.25
2019-05-01T02:57:20.755Z,89.39
2019-05-01T02:59:52.297Z,88.58
2019-05-01T03:02:22.855Z,89.34
2019-05-01T03:04:52.761Z,89.05
2019-05-01T03:07:24.357Z,88.95
2019-05-01T03:09:54.664Z,88.61
2019-05-01T03:12:26.195Z,88.99
2019-05-01T03:14:57.919Z,88.56
2019-05-01T03:17:41.887Z,88.05
2019-05-01T03:20:16.101Z,88.95
2019-05-01T03:22:47.100Z,89.04
2019-05-01T03:25:16.729Z,89.19
2019-05-01T03:27:45.531Z,89.31
2019-05-01T03:30:14.553Z,89.42
2019-05-01T03:32:43.634Z,89.37
2019-05-01T03:35:12.368Z,89.39
2019-05-01T03:37:41.438Z,89.20
2019-05-01T03:40:12.315Z,89.16
2019-05-01T03:42:41.298Z,89.36
2019-05-01T03:45:10.753Z,89.41
2019-05-01T03:47:39.404Z,89.45
2019-05-01T03:50:08.356Z,89.59
2019-05-01T03:52:36.978Z,89.44
2019-05-01T03:55:06.317Z,89.59
2019-05-01T03:57:34.966Z,89.19
2019-05-01T04:00:10.052Z,89.27
2019-05-01T04:02:43.621Z,89.10
2019-05-01T04:05:12.332Z,89.15
2019-05-01T04:07:41.977Z,88.42
2019-05-01T04:10:11.091Z,88.61
2019-05-01T04:12:39.759Z,89.01
2019-05-01T04:15:08.653Z,88.78
2019-05-01T04:17:41.934Z,88.80
2019-05-01T04:20:10.913Z,89.05
2019-05-01T04:22:39.924Z,88.64
2019-05-01T04:25:09.530Z,88.58
2019-05-01T04:27:39.889Z,88.35
2019-05-01T04:30:10.336Z,88.53
2019-05-01T04:32:52.017Z,88.41
2019-05-01T04:35:24.394Z,87.76
2019-05-01T04:37:53.896Z,87.95
2019-05-01T04:40:22.535Z,87.08
2019-05-01T04:42:51.837Z,87.83
2019-05-01T04:45:21.460Z,85.57
2019-05-01T04:47:51.098Z,86.72
2019-05-01T04:50:19.739Z,86.11
2019-05-01T04:52:48.650Z,86.89
2019-05-01T04:55:17.254Z,87.35
2019-05-01T04:57:46.583Z,86.43
2019-05-01T05:00:15.758Z,87.08
2019-05-01T05:03:04.069Z,86.97
2019-05-01T05:05:23.019Z,87.04
2019-05-01T05:07:51.658Z,87.39
2019-05-01T05:10:20.465Z,87.37
2019-05-01T05:13:00.100Z,87.28
2019-05-01T05:15:47.441Z,86.81
2019-05-01T05:18:16.526Z,86.37
2019-05-01T05:20:45.682Z,86.67
2019-05-01T05:23:14.697Z,87.05
2019-05-01T05:25:43.694Z,86.72
2019-05-01T05:28:13.621Z,87.02
2019-05-01T05:30:44.660Z,86.89
2019-05-01T05:33:18.647Z,85.75
2019-05-01T05:35:46.367Z,85.65
2019-05-01T05:38:18.358Z,85.96
2019-05-01T05:40:47.485Z,85.39
2019-05-01T05:43:16.410Z,84.91
2019-05-01T05:45:45.138Z,84.77
2019-05-01T05:48:14.135Z,85.40
2019-05-01T05:51:02.488Z,85.14
2019-05-01T05:53:40.734Z,85.23
2019-05-01T05:56:19.899Z,85.10
2019-05-01T05:58:53.566Z,85.33
2019-05-01T06:01:38.763Z,85.72
2019-05-01T06:04:14.851Z,85.74
2019-05-01T06:06:52.591Z,85.46
2019-05-01T06:09:25.152Z,86.05
2019-05-01T06:12:10.197Z,85.92
2019-05-01T06:14:51.912Z,85.73
2019-05-01T06:17:40.485Z,85.93
2019-05-01T06:20:28.985Z,85.54
2019-05-01T06:23:09.187Z,85.15
2019-05-01T06:25:41.493Z,85.03
2019-05-01T06:28:10.300Z,85.55
2019-05-01T06:30:42.089Z,85.72
2019-05-01T06:33:11.023Z,85.66
2019-05-01T06:35:39.738Z,85.88
2019-05-01T06:38:14.299Z,85.62
2019-05-01T06:40:44.991Z,85.57
2019-05-01T06:43:25.516Z,85.67
2019-05-01T06:46:02.379Z,85.87
2019-05-01T06:48:33.405Z,85.48
2019-05-01T06:51:12.948Z,85.35
2019-05-01T06:53:41.311Z,85.06
2019-05-01T06:56:10.264Z,84.25
2019-05-01T06:58:38.874Z,84.24
2019-05-01T07:01:07.748Z,84.04
2019-05-01T07:03:36.363Z,83.39
2019-05-01T07:06:14.179Z,84.30
2019-05-01T07:08:39.361Z,82.97
2019-05-01T07:11:06.177Z,82.93
2019-05-01T07:13:40.037Z,83.67
2019-05-01T07:16:07.244Z,81.86
2019-05-01T07:18:35.823Z,82.24
2019-05-01T07:21:04.744Z,81.80
2019-05-01T07:23:33.374Z,80.57
2019-05-01T07:26:01.993Z,80.53
2019-05-01T07:28:34.484Z,81.57
2019-05-01T07:31:05.186Z,81.25
2019-05-01T07:33:33.419Z,81.03
2019-05-01T07:36:02.428Z,79.78
2019-05-01T07:38:33.012Z,80.29
2019-05-01T07:41:03.377Z,79.23
2019-05-01T07:43:38.152Z,79.23
2019-05-01T07:46:13.788Z,79.88
2019-05-01T07:48:43.440Z,78.95
2019-05-01T07:51:12.705Z,79.83
2019-05-01T07:53:42.018Z,79.16
2019-05-01T07:56:11.027Z,79.40
2019-05-01T07:58:39.640Z,78.37
2019-05-01T08:01:18.313Z,76.92
2019-05-01T08:03:46.228Z,76.98
2019-05-01T08:06:20.848Z,75.77
2019-05-01T08:08:46.347Z,76.57
2019-05-01T08:11:14.962Z,74.76
2019-05-01T08:13:43.542Z,74.99
2019-05-01T08:16:12.485Z,73.80
2019-05-01T08:18:45.615Z,72.09
2019-05-01T08:21:26.158Z,71.85
2019-05-01T08:23:55.416Z,70.35
2019-05-01T08:26:24.036Z,67.04
2019-05-01T08:29:10.652Z,68.82
2019-05-01T08:31:40.924Z,65.50
2019-05-01T08:34:20.736Z,65.87
2019-05-01T08:36:48.444Z,65.21
2019-05-01T08:39:17.268Z,58.36
2019-05-01T08:41:45.886Z,58.97
2019-05-01T08:44:14.565Z,58.34
2019-05-01T08:46:52.074Z,58.25
2019-05-01T08:49:28.325Z,59.25
2019-05-01T08:51:56.911Z,58.65
2019-05-01T08:54:28.909Z,59.76
2019-05-01T08:56:57.986Z,62.14
2019-05-01T08:59:26.103Z,61.13
2019-05-01T09:02:08.569Z,63.95
2019-05-01T09:04:29.828Z,64.13
2019-05-01T09:06:55.331Z,65.69
2019-05-01T09:09:23.941Z,63.33
2019-05-01T09:11:54.612Z,59.70
2019-05-01T09:14:22.674Z,59.56
2019-05-01T09:16:52.584Z,60.32
2019-05-01T09:19:21.339Z,57.41
2019-05-01T09:21:49.947Z,58.31
2019-05-01T09:24:18.628Z,58.06
2019-05-01T09:26:54.894Z,56.29
2019-05-01T09:29:31.686Z,56.10
2019-05-01T09:32:00.704Z,59.56
2019-05-01T09:34:30.766Z,58.22
2019-05-01T09:36:59.433Z,57.94
2019-05-01T09:39:29.594Z,54.86
2019-05-01T09:41:58.348Z,52.33
2019-05-01T09:44:26.961Z,54.03
2019-05-01T09:46:55.645Z,53.12
2019-05-01T09:49:24.331Z,50.48
2019-05-01T09:52:03.597Z,49.78
2019-05-01T09:54:36.839Z,54.58
2019-05-01T09:57:05.650Z,52.08
2019-05-01T09:59:34.369Z,52.27
2019-05-01T10:02:07.783Z,53.20
2019-05-01T10:04:33.737Z,53.81
2019-05-01T10:07:02.415Z,50.87
2019-05-01T10:09:31.117Z,52.76
2019-05-01T10:11:59.925Z,51.31
2019-05-01T10:14:31.760Z,52.56
2019-05-01T10:16:59.034Z,48.82
2019-05-01T10:19:27.649Z,51.00
2019-05-01T10:22:02.274Z,51.11
2019-05-01T10:24:32.252Z,50.66
2019-05-01T10:27:01.575Z,47.43
2019-05-01T10:29:46.927Z,46.57
2019-05-01T10:32:21.773Z,44.16
2019-05-01T10:34:57.016Z,45.93
2019-05-01T10:37:28.219Z,46.29
2019-05-01T10:39:55.992Z,48.42
2019-05-01T10:42:24.618Z,46.96
2019-05-01T10:44:53.279Z,45.60
2019-05-01T10:47:21.751Z,45.72
2019-05-01T10:49:50.359Z,46.40
2019-05-01T10:52:18.975Z,45.75
2019-05-01T10:54:47.632Z,47.33
2019-05-01T10:57:16.513Z,45.17
2019-05-01T10:59:46.578Z,45.51
2019-05-01T11:02:16.733Z,44.63
2019-05-01T11:04:45.393Z,44.00
2019-05-01T11:07:13.992Z,39.16
2019-05-01T11:09:42.609Z,35.57
2019-05-01T11:12:11.148Z,37.19
2019-05-01T11:14:39.761Z,37.50
2019-05-01T11:17:08.446Z,40.62
2019-05-01T11:19:36.995Z,41.34
2019-05-01T11:22:05.733Z,35.92
2019-05-01T11:24:34.456Z,38.58
2019-05-01T11:27:02.993Z,38.92
2019-05-01T11:29:31.699Z,37.80
2019-05-01T11:32:01.963Z,39.84
2019-05-01T11:34:48.561Z,37.39
2019-05-01T11:37:18.736Z,37.46
2019-05-01T11:39:57.760Z,36.40
2019-05-01T11:42:26.396Z,37.78
2019-05-01T11:44:54.999Z,40.17
2019-05-01T11:47:23.717Z,35.32
2019-05-01T11:49:52.393Z,38.26
2019-05-01T11:52:21.035Z,34.88
2019-05-01T11:54:52.255Z,34.27
2019-05-01T11:57:21.015Z,35.35
2019-05-01T11:59:49.560Z,37.58
2019-05-01T12:02:18.176Z,40.28
2019-05-01T12:04:46.869Z,42.24
2019-05-01T12:07:15.491Z,42.05
2019-05-01T12:09:44.135Z,42.12
2019-05-01T12:12:17.130Z,41.54
2019-05-01T12:14:45.863Z,41.58
2019-05-01T12:17:27.926Z,42.40
2019-05-01T12:19:56.546Z,42.27
2019-05-01T12:22:25.179Z,43.04
2019-05-01T12:24:53.795Z,43.78
2019-05-01T12:27:22.414Z,44.16
2019-05-01T12:29:50.990Z,41.41
2019-05-01T12:32:19.632Z,39.32
2019-05-01T12:34:49.687Z,40.31
2019-05-01T12:37:22.977Z,41.08
2019-05-01T12:39:51.598Z,39.69
2019-05-01T12:42:21.852Z,41.41
2019-05-01T12:44:50.391Z,42.19
2019-05-01T12:47:20.650Z,42.93
2019-05-01T12:49:53.604Z,42.81
2019-05-01T12:52:38.566Z,40.47
2019-05-01T12:55:28.256Z,40.32
2019-05-01T12:57:56.868Z,40.54
2019-05-01T13:00:48.192Z,40.72
2019-05-01T13:03:16.796Z,41.74
2019-05-01T13:05:45.443Z,42.33
2019-05-01T13:08:14.045Z,40.15
2019-05-01T13:10:42.618Z,41.79
2019-05-01T13:13:11.479Z,38.45
2019-05-01T13:15:40.067Z,41.00
2019-05-01T13:18:08.649Z,41.59
2019-05-01T13:20:37.288Z,41.01
2019-05-01T13:23:06.092Z,39.57
2019-05-01T13:25:34.859Z,36.50
2019-05-01T13:28:08.306Z,38.07
2019-05-01T13:30:44.358Z,38.95
2019-05-01T13:33:12.926Z,37.83
2019-05-01T13:35:41.483Z,37.06
2019-05-01T13:38:10.089Z,36.17
2019-05-01T13:40:38.659Z,36.89
2019-05-01T13:43:07.297Z,35.90
2019-05-01T13:45:35.837Z,37.18
2019-05-01T13:48:04.735Z,36.15
2019-05-01T13:50:33.608Z,36.60
2019-05-01T13:53:02.074Z,36.74
2019-05-01T13:55:30.750Z,35.42
2019-05-01T13:57:59.414Z,35.49
2019-05-01T14:00:28.045Z,37.09
2019-05-01T14:02:56.661Z,37.99
2019-05-01T14:05:25.669Z,38.43
2019-05-01T14:07:54.281Z,37.79
2019-05-01T14:10:23.070Z,35.09
2019-05-01T14:12:51.610Z,34.03
2019-05-01T14:15:20.139Z,35.34
2019-05-01T14:17:48.780Z,34.32
2019-05-01T14:20:35.570Z,34.83
2019-05-01T14:23:22.367Z,36.26
2019-05-01T14:26:03.795Z,36.72
2019-05-01T14:28:34.030Z,36.28
2019-05-01T14:31:02.666Z,34.49
2019-05-01T14:33:32.774Z,35.21
2019-05-01T14:36:01.333Z,35.72
2019-05-01T14:38:29.856Z,38.45
2019-05-01T14:40:58.465Z,37.52
2019-05-01T14:43:27.115Z,36.40
2019-05-01T14:45:56.095Z,37.68
2019-05-01T14:48:24.846Z,38.80
2019-05-01T14:50:53.551Z,39.49
2019-05-01T14:53:22.156Z,38.15
2019-05-01T14:55:50.758Z,39.32
2019-05-01T14:58:19.428Z,38.52
2019-05-01T15:00:48.073Z,38.20
2019-05-01T15:03:17.611Z,40.05
2019-05-01T15:05:46.223Z,39.81
2019-05-01T15:08:14.775Z,39.89
2019-05-01T15:10:43.381Z,39.30
2019-05-01T15:13:16.261Z,40.97
2019-05-01T15:15:46.362Z,40.94
2019-05-01T15:18:34.951Z,38.95
2019-05-01T15:21:03.562Z,38.75
2019-05-01T15:23:32.129Z,38.96
2019-05-01T15:26:00.788Z,38.93
2019-05-01T15:28:29.435Z,40.03
2019-05-01T15:30:58.107Z,38.72
2019-05-01T15:33:26.647Z,38.74
2019-05-01T15:35:55.186Z,40.49
2019-05-01T15:38:23.849Z,39.14
2019-05-01T15:41:05.789Z,40.11
2019-05-01T15:43:39.003Z,40.65
2019-05-01T15:46:07.607Z,39.55
2019-05-01T15:48:36.144Z,40.21
2019-05-01T15:51:04.852Z,39.77
2019-05-01T15:53:33.457Z,39.42
2019-05-01T15:56:02.110Z,40.05
2019-05-01T15:58:30.793Z,39.78
2019-05-01T16:00:59.402Z,40.23
2019-05-01T16:03:27.905Z,41.54
2019-05-01T16:05:56.521Z,40.57
2019-05-01T16:08:24.984Z,41.71
2019-05-01T16:11:10.633Z,41.73
2019-05-01T16:13:39.312Z,42.60
2019-05-01T16:16:08.218Z,42.54
2019-05-01T16:18:36.841Z,43.30
2019-05-01T16:21:05.443Z,43.46
2019-05-01T16:23:33.953Z,44.25
2019-05-01T16:26:02.495Z,43.08
2019-05-01T16:28:31.046Z,43.45
2019-05-01T16:30:59.706Z,43.54
2019-05-01T16:33:28.258Z,43.88
2019-05-01T16:35:56.793Z,44.59
2019-05-01T16:38:26.981Z,45.00
2019-05-01T16:41:06.414Z,45.03
2019-05-01T16:43:35.192Z,45.30
2019-05-01T16:46:03.945Z,46.32
2019-05-01T16:48:32.559Z,45.12
2019-05-01T16:51:01.170Z,45.52
2019-05-01T16:53:29.866Z,45.54
2019-05-01T16:55:58.478Z,45.58
2019-05-01T16:58:27.460Z,46.22
2019-05-01T17:01:00.161Z,46.65
2019-05-01T17:03:48.583Z,46.62
2019-05-01T17:06:30.724Z,47.37
2019-05-01T17:09:06.943Z,47.26
2019-05-01T17:11:35.981Z,46.57
2019-05-01T17:14:06.293Z,47.40
2019-05-01T17:16:34.949Z,48.10
2019-05-01T17:19:04.233Z,48.56
2019-05-01T17:21:32.768Z,48.55
2019-05-01T17:24:01.312Z,48.23
2019-05-01T17:26:29.888Z,49.08
2019-05-01T17:29:00.170Z,49.25
2019-05-01T17:31:29.007Z,50.00
2019-05-01T17:33:57.887Z,50.73
2019-05-01T17:36:26.574Z,51.19
2019-05-01T17:38:55.221Z,52.59
2019-05-01T17:41:27.135Z,53.32
2019-05-01T17:43:56.577Z,53.83
2019-05-01T17:46:24.609Z,54.52
2019-05-01T17:48:53.196Z,54.31
2019-05-01T17:51:21.839Z,55.02
2019-05-01T17:53:50.520Z,55.84
2019-05-01T17:56:27.528Z,56.32
2019-05-01T17:58:49.319Z,56.62
2019-05-01T18:01:33.199Z,56.89
2019-05-01T18:04:03.187Z,57.48
2019-05-01T18:06:36.368Z,57.65
2019-05-01T18:09:12.938Z,57.91
2019-05-01T18:11:39.114Z,58.40
2019-05-01T18:14:07.737Z,59.02
2019-05-01T18:16:36.365Z,59.32
2019-05-01T18:19:09.764Z,59.58
2019-05-01T18:21:37.226Z,59.63
2019-05-01T18:24:24.714Z,60.06
2019-05-01T18:27:06.751Z,60.73
2019-05-01T18:29:46.298Z,60.80
2019-05-01T18:32:16.481Z,60.90
2019-05-01T18:34:45.026Z,60.78
2019-05-01T18:37:31.155Z,60.89
2019-05-01T18:39:59.062Z,61.13
2019-05-01T18:42:27.671Z,61.24
2019-05-01T18:44:56.281Z,61.40
2019-05-01T18:47:25.567Z,62.16
2019-05-01T18:49:54.212Z,62.63
2019-05-01T18:52:22.818Z,62.18
2019-05-01T18:54:51.470Z,62.14
2019-05-01T18:57:20.006Z,62.52
2019-05-01T18:59:50.230Z,62.94
2019-05-01T19:02:20.398Z,63.25
2019-05-01T19:04:49.110Z,63.18
2019-05-01T19:07:17.907Z,63.34
2019-05-01T19:09:46.776Z,63.61
2019-05-01T19:12:16.120Z,64.18
2019-05-01T19:14:45.250Z,64.36
2019-05-01T19:17:14.058Z,64.45
2019-05-01T19:19:43.033Z,64.74
2019-05-01T19:22:11.646Z,65.29
2019-05-01T19:24:40.327Z,65.53
2019-05-01T19:27:08.985Z,65.96
2019-05-01T19:29:37.624Z,66.12
2019-05-01T19:32:07.396Z,66.62
2019-05-01T19:34:36.086Z,67.21
2019-05-01T19:37:04.784Z,67.53
2019-05-01T19:39:43.454Z,67.39
2019-05-01T19:42:04.664Z,67.90
2019-05-01T19:44:33.374Z,68.23
2019-05-01T19:47:02.058Z,68.57
2019-05-01T19:49:30.858Z,68.55
2019-05-01T19:52:00.569Z,68.61
2019-05-01T19:54:30.254Z,69.02
2019-05-01T19:56:58.858Z,69.20
2019-05-01T19:59:27.598Z,69.45
2019-05-01T20:01:56.226Z,69.60
2019-05-01T20:04:24.789Z,70.13
2019-05-01T20:06:53.352Z,70.15
2019-05-01T20:09:22.873Z,70.57
2019-05-01T20:11:51.532Z,70.25
2019-05-01T20:14:20.197Z,70.57
2019-05-01T20:16:50.921Z,70.77
2019-05-01T20:19:19.521Z,70.92
2019-05-01T20:21:48.047Z,71.18
2019-05-01T20:24:19.215Z,71.30
2019-05-01T20:26:47.022Z,71.96
2019-05-01T20:29:17.764Z,71.82
2019-05-01T20:31:50.836Z,72.06
2019-05-01T20:34:17.427Z,72.15
2019-05-01T20:36:46.820Z,72.03
2019-05-01T20:39:15.536Z,72.24
2019-05-01T20:41:44.069Z,72.45
2019-05-01T20:44:14.049Z,72.37
2019-05-01T20:46:43.043Z,72.47
2019-05-01T20:49:11.774Z,73.03
2019-05-01T20:51:40.377Z,73.27
2019-05-01T20:54:08.984Z,73.58
2019-05-01T20:56:39.112Z,73.54
2019-05-01T20:59:07.754Z,73.91
2019-05-01T21:01:36.395Z,74.02
2019-05-01T21:04:17.716Z,74.32
2019-05-01T21:06:53.735Z,74.28
2019-05-01T21:09:23.841Z,74.17
2019-05-01T21:12:04.714Z,74.21
2019-05-01T21:14:24.342Z,74.31
2019-05-01T21:16:52.885Z,74.36
2019-05-01T21:19:23.223Z,74.88
2019-05-01T21:21:53.641Z,75.18
2019-05-01T21:24:23.945Z,75.37
2019-05-01T21:26:53.426Z,75.46
2019-05-01T21:29:23.925Z,75.57
2019-05-01T21:31:54.272Z,75.61
2019-05-01T21:34:24.455Z,75.90
2019-05-01T21:36:54.045Z,76.08
2019-05-01T21:39:25.770Z,76.22
2019-05-01T21:41:53.860Z,76.21
2019-05-01T21:44:23.352Z,76.35
2019-05-01T21:46:53.503Z,76.35
2019-05-01T21:49:22.978Z,76.43
2019-05-01T21:51:52.967Z,76.65
2019-05-01T21:54:22.177Z,76.92
2019-05-01T21:56:50.990Z,76.92
2019-05-01T21:59:19.578Z,76.88
2019-05-01T22:01:48.332Z,77.16
2019-05-01T22:04:17.077Z,76.89
2019-05-01T22:06:46.748Z,76.44
2019-05-01T22:09:17.709Z,76.78
2019-05-01T22:11:47.285Z,76.73
2019-05-01T22:14:31.058Z,77.04
2019-05-01T22:17:01.025Z,77.06
2019-05-01T22:19:30.605Z,77.14
2019-05-01T22:22:13.062Z,77.42
2019-05-01T22:24:46.939Z,77.18
2019-05-01T22:27:25.849Z,77.03
2019-05-01T22:29:58.850Z,77.59
2019-05-01T22:32:32.338Z,77.95
2019-05-01T22:35:03.827Z,78.45
2019-05-01T22:37:32.913Z,78.07
2019-05-01T22:40:06.123Z,78.56
2019-05-01T22:42:34.767Z,78.87
2019-05-01T22:45:04.284Z,78.67
2019-05-01T22:47:32.887Z,79.63
2019-05-01T22:50:01.790Z,79.78
2019-05-01T22:52:30.469Z,79.93
2019-05-01T22:54:59.121Z,80.28
2019-05-01T22:57:27.889Z,80.44
2019-05-01T22:59:56.417Z,80.54
2019-05-01T23:02:29.618Z,80.69
2019-05-01T23:04:58.419Z,80.67
2019-05-01T23:07:27.326Z,80.90
2019-05-01T23:09:59.280Z,81.51
2019-05-01T23:12:26.447Z,81.62
2019-05-01T23:14:55.185Z,81.86
2019-05-01T23:17:39.553Z,82.12
2019-05-01T23:20:09.994Z,81.98
2019-05-01T23:22:40.077Z,81.87
2019-05-01T23:25:09.025Z,81.93
2019-05-01T23:27:37.620Z,82.13
2019-05-01T23:30:08.707Z,82.32
2019-05-01T23:32:37.345Z,82.17
2019-05-01T23:35:07.347Z,82.42
2019-05-01T23:37:35.971Z,82.66
2019-05-01T23:40:06.280Z,82.48
2019-05-01T23:42:34.927Z,82.57
2019-05-01T23:45:04.567Z,82.89
2019-05-01T23:47:33.149Z,82.98
2019-05-01T23:50:01.853Z,83.24
2019-05-01T23:52:34.022Z,83.42
2019-05-01T23:55:00.790Z,83.62
2019-05-01T23:57:29.429Z,83.77
2019-05-01T23:59:57.967Z,83.86
